createdAt,value
2023-01-30T00:01:05.084Z,2.48
2023-01-30T00:06:01.494Z,2.53
2023-01-30T00:11:03.007Z,2.57
2023-01-30T00:15:59.641Z,2.57
2023-01-30T00:21:00.859Z,2.56
2023-01-30T00:25:57.591Z,2.60
2023-01-30T00:30:55.879Z,2.62
2023-01-30T00:35:54.096Z,2.66
2023-01-30T00:40:50.729Z,2.74
2023-01-30T00:46:07.061Z,2.76
2023-01-30T00:51:03.752Z,2.84
2023-01-30T00:56:00.317Z,2.92
2023-01-30T01:00:56.792Z,2.94
2023-01-30T01:05:53.174Z,3.01
2023-01-30T01:10:50.096Z,3.06
2023-01-30T01:15:46.474Z,3.08
2023-01-30T01:20:42.860Z,3.16
2023-01-30T01:25:39.282Z,3.12
2023-01-30T01:30:35.670Z,3.16
2023-01-30T01:35:32.099Z,3.22
2023-01-30T01:40:47.136Z,3.22
2023-01-30T01:45:45.378Z,3.25
2023-01-30T01:51:02.351Z,3.29
2023-01-30T01:56:01.598Z,3.26
2023-01-30T02:00:59.803Z,3.29
2023-01-30T02:06:00.922Z,3.30
2023-01-30T02:11:25.707Z,3.37
2023-01-30T02:16:22.090Z,3.39
2023-01-30T02:21:43.015Z,3.41
2023-01-30T02:27:03.946Z,3.40
2023-01-30T02:32:33.360Z,3.43
2023-01-30T02:37:57.918Z,3.46
2023-01-30T02:43:20.578Z,3.52
2023-01-30T02:48:34.922Z,3.59
2023-01-30T02:53:34.779Z,3.67
2023-01-30T02:58:38.319Z,3.68
2023-01-30T03:03:53.348Z,3.74
2023-01-30T03:09:06.256Z,3.78
2023-01-30T03:14:11.905Z,3.86
2023-01-30T03:19:13.446Z,3.89
2023-01-30T03:24:10.000Z,3.94
2023-01-30T03:29:06.645Z,3.96
2023-01-30T03:34:03.094Z,4.03
2023-01-30T03:38:59.555Z,4.05
2023-01-30T03:43:56.004Z,4.05
2023-01-30T03:48:52.440Z,4.11
2023-01-30T03:53:48.869Z,4.14
2023-01-30T03:58:45.369Z,4.18
2023-01-30T04:03:41.802Z,4.20
2023-01-30T04:08:38.235Z,4.26
2023-01-30T04:13:34.687Z,4.25
2023-01-30T04:18:31.109Z,4.33
2023-01-30T04:23:27.522Z,4.38
2023-01-30T04:28:23.953Z,4.49
2023-01-30T04:33:20.579Z,4.43
2023-01-30T04:38:17.030Z,4.40
2023-01-30T04:43:13.613Z,4.34
2023-01-30T04:48:10.176Z,4.32
2023-01-30T04:53:06.616Z,4.31
2023-01-30T04:58:03.273Z,4.35
2023-01-30T05:02:59.659Z,4.37
2023-01-30T05:07:56.093Z,4.44
2023-01-30T05:12:52.465Z,4.45
2023-01-30T05:17:48.885Z,4.40
2023-01-30T05:22:45.269Z,4.37
2023-01-30T05:27:42.028Z,4.33
2023-01-30T05:32:38.475Z,4.31
2023-01-30T05:37:34.901Z,4.31
2023-01-30T05:42:31.320Z,4.25
2023-01-30T05:47:27.749Z,4.23
2023-01-30T05:52:24.155Z,4.17
2023-01-30T05:57:20.524Z,4.10
2023-01-30T06:02:16.996Z,4.06
2023-01-30T06:07:14.379Z,3.89
2023-01-30T06:12:10.809Z,3.90
2023-01-30T06:17:07.339Z,3.90
2023-01-30T06:22:03.728Z,3.75
2023-01-30T06:27:00.140Z,3.69
2023-01-30T06:31:56.659Z,3.58
2023-01-30T06:36:53.045Z,3.47
2023-01-30T06:41:49.621Z,3.45
2023-01-30T06:46:46.048Z,3.43
2023-01-30T06:51:42.482Z,3.49
2023-01-30T06:56:38.924Z,3.49
2023-01-30T07:01:35.653Z,3.49
2023-01-30T07:06:32.252Z,3.49
2023-01-30T07:11:28.672Z,3.46
2023-01-30T07:16:29.171Z,3.44
2023-01-30T07:21:27.243Z,3.57
2023-01-30T07:26:24.752Z,3.56
2023-01-30T07:31:21.285Z,3.51
2023-01-30T07:36:17.687Z,3.63
2023-01-30T07:41:14.141Z,3.53
2023-01-30T07:46:10.578Z,3.59
2023-01-30T07:51:07.020Z,3.65
2023-01-30T07:56:10.361Z,3.79
2023-01-30T08:01:06.854Z,3.83
2023-01-30T08:06:03.320Z,4.02
2023-01-30T08:10:59.747Z,4.00
2023-01-30T08:16:00.118Z,3.97
2023-01-30T08:21:05.579Z,3.98
2023-01-30T08:26:04.111Z,3.96
2023-01-30T08:31:00.602Z,3.85
2023-01-30T08:35:57.466Z,4.06
2023-01-30T08:40:53.845Z,4.16
2023-01-30T08:45:53.551Z,4.21
2023-01-30T08:50:53.982Z,4.26
2023-01-30T08:55:53.743Z,4.30
2023-01-30T09:00:50.466Z,4.37
2023-01-30T09:05:47.112Z,4.57
2023-01-30T09:10:43.547Z,4.68
2023-01-30T09:15:44.279Z,4.64
2023-01-30T09:20:40.698Z,4.59
2023-01-30T09:25:37.645Z,4.67
2023-01-30T09:30:34.354Z,4.70
2023-01-30T09:35:30.792Z,4.69
2023-01-30T09:40:31.256Z,4.71
2023-01-30T09:46:00.165Z,4.91
2023-01-30T09:51:17.775Z,5.01
2023-01-30T09:56:14.242Z,5.06
2023-01-30T10:01:21.638Z,4.76
2023-01-30T10:06:18.104Z,4.40
2023-01-30T10:11:40.774Z,3.88
2023-01-30T10:16:40.029Z,3.64
2023-01-30T10:21:50.512Z,3.48
2023-01-30T10:26:47.711Z,3.28
2023-01-30T10:31:49.587Z,3.22
2023-01-30T10:36:57.137Z,3.16
2023-01-30T10:42:10.223Z,3.42
2023-01-30T10:47:46.588Z,3.90
2023-01-30T10:53:27.379Z,4.13
2023-01-30T10:58:38.137Z,3.91
2023-01-30T11:03:41.367Z,3.81
2023-01-30T11:08:37.816Z,3.53
2023-01-30T11:13:34.360Z,3.10
2023-01-30T11:23:48.056Z,2.85
2023-01-30T11:28:48.670Z,2.96
2023-01-30T11:33:45.872Z,2.98
2023-01-30T11:38:56.773Z,3.01
2023-01-30T11:44:03.326Z,3.13
2023-01-30T11:49:46.522Z,3.39
2023-01-30T11:54:29.727Z,3.71
2023-01-30T11:59:38.979Z,3.98
2023-01-30T12:04:35.571Z,3.95
2023-01-30T12:09:39.954Z,4.15
2023-01-30T12:14:44.410Z,4.41
2023-01-30T12:20:12.724Z,4.73
2023-01-30T12:25:41.352Z,4.37
2023-01-30T12:30:47.166Z,3.99
2023-01-30T12:35:56.752Z,3.71
2023-01-30T12:41:06.368Z,3.22
2023-01-30T12:46:07.202Z,3.38
2023-01-30T12:51:12.574Z,3.70
2023-01-30T12:56:42.255Z,4.10
2023-01-30T13:02:15.280Z,4.76
2023-01-30T13:07:33.093Z,4.87
2023-01-30T13:13:03.203Z,4.61
2023-01-30T13:18:16.093Z,4.50
2023-01-30T13:23:25.220Z,4.48
2023-01-30T13:28:28.878Z,4.62
2023-01-30T13:33:39.180Z,4.74
2023-01-30T13:38:40.678Z,4.65
2023-01-30T13:43:42.573Z,4.41
2023-01-30T13:49:03.800Z,4.28
2023-01-30T13:54:11.117Z,3.84
2023-01-30T13:59:34.128Z,3.74
2023-01-30T14:04:30.453Z,3.74
2023-01-30T14:09:29.986Z,3.89
2023-01-30T14:14:29.598Z,4.21
2023-01-30T14:19:40.480Z,4.38
2023-01-30T14:24:36.913Z,4.56
2023-01-30T14:29:54.178Z,4.58
2023-01-30T14:35:10.809Z,4.64
2023-01-30T14:40:37.857Z,4.63
2023-01-30T14:45:50.736Z,4.69
2023-01-30T14:50:47.922Z,4.80
2023-01-30T14:55:44.397Z,4.77
2023-01-30T15:00:40.926Z,4.81
2023-01-30T15:05:43.205Z,4.88
2023-01-30T15:11:05.331Z,4.80
2023-01-30T15:16:04.652Z,4.85
2023-01-30T15:21:23.812Z,4.90
2023-01-30T15:26:58.820Z,4.83
2023-01-30T15:31:59.151Z,4.78
2023-01-30T15:36:55.636Z,4.88
2023-01-30T15:41:56.969Z,4.83
2023-01-30T15:47:11.934Z,4.83
2023-01-30T15:52:14.538Z,4.84
2023-01-30T15:57:13.253Z,4.87
2023-01-30T16:02:16.406Z,4.79
2023-01-30T16:07:22.867Z,4.71
2023-01-30T16:12:29.633Z,4.74
2023-01-30T16:17:29.897Z,4.71
2023-01-30T16:22:32.757Z,4.66
2023-01-30T16:27:35.179Z,4.73
2023-01-30T16:32:33.551Z,4.69
2023-01-30T16:37:31.737Z,4.53
2023-01-30T16:42:29.267Z,4.49
2023-01-30T16:47:28.245Z,4.41
2023-01-30T16:52:24.744Z,4.43
2023-01-30T16:57:35.786Z,4.48
2023-01-30T17:02:39.586Z,4.30
2023-01-30T17:07:37.956Z,4.27
2023-01-30T17:12:42.386Z,4.29
2023-01-30T17:17:42.053Z,4.26
2023-01-30T17:22:41.686Z,4.34
2023-01-30T17:27:38.181Z,4.34
2023-01-30T17:32:34.614Z,4.36
2023-01-30T17:37:31.066Z,4.32
2023-01-30T17:42:27.473Z,4.28
2023-01-30T17:47:23.873Z,4.22
2023-01-30T17:52:21.375Z,4.21
2023-01-30T17:57:17.827Z,4.04
2023-01-30T18:02:14.251Z,3.97
2023-01-30T18:07:14.104Z,4.00
2023-01-30T18:12:10.572Z,4.04
2023-01-30T18:17:07.071Z,4.04
2023-01-30T18:22:03.469Z,3.91
2023-01-30T18:27:01.815Z,3.85
2023-01-30T18:32:04.821Z,3.79
2023-01-30T18:37:01.196Z,3.71
2023-01-30T18:41:57.650Z,3.68
2023-01-30T18:46:54.049Z,3.55
2023-01-30T18:51:50.548Z,3.46
2023-01-30T18:56:46.980Z,3.50
2023-01-30T19:01:43.457Z,3.40
2023-01-30T19:06:43.223Z,3.60
2023-01-30T19:11:58.267Z,3.47
2023-01-30T19:16:54.699Z,3.46
2023-01-30T19:21:52.140Z,3.46
2023-01-30T19:26:48.796Z,3.42
2023-01-30T19:31:47.094Z,3.37
2023-01-30T19:36:43.761Z,3.34
2023-01-30T19:41:40.186Z,3.17
2023-01-30T19:46:36.673Z,3.06
2023-01-30T19:51:34.586Z,3.14
2023-01-30T19:56:31.836Z,3.20
2023-01-30T20:01:32.544Z,3.14
2023-01-30T20:06:31.639Z,3.10
2023-01-30T20:11:29.310Z,3.07
2023-01-30T20:16:27.541Z,3.05
2023-01-30T20:21:24.989Z,2.91
2023-01-30T20:26:23.586Z,2.97
2023-01-30T20:31:22.856Z,2.93
2023-01-30T20:36:20.209Z,2.88
2023-01-30T20:41:21.304Z,2.99
2023-01-30T20:46:20.611Z,2.93
2023-01-30T20:51:24.252Z,2.82
2023-01-30T20:56:21.921Z,3.11
2023-01-30T21:01:21.332Z,3.23
2023-01-30T21:06:41.886Z,3.28
2023-01-30T21:11:36.237Z,3.30
2023-01-30T21:16:34.010Z,3.14
2023-01-30T21:21:37.068Z,3.03
2023-01-30T21:26:35.947Z,2.95
2023-01-30T21:31:34.337Z,2.83
2023-01-30T21:36:30.917Z,2.81
2023-01-30T21:41:50.433Z,2.82
2023-01-30T21:46:48.173Z,2.66
2023-01-30T21:51:46.775Z,2.59
2023-01-30T21:56:43.720Z,2.65
2023-01-30T22:01:41.717Z,2.63
2023-01-30T22:06:38.977Z,2.69
2023-01-30T22:11:36.671Z,2.91
2023-01-30T22:16:33.846Z,3.02
2023-01-30T22:21:34.209Z,3.02
2023-01-30T22:26:31.097Z,2.99
2023-01-30T22:31:34.180Z,3.01
2023-01-30T22:36:33.719Z,3.01
2023-01-30T22:41:35.181Z,3.05
2023-01-30T22:46:34.302Z,3.01
2023-01-30T22:51:33.451Z,2.78
2023-01-30T22:56:35.914Z,2.71
2023-01-30T23:01:33.588Z,2.74
2023-01-30T23:06:31.329Z,2.72
2023-01-30T23:11:36.939Z,2.70
2023-01-30T23:16:35.846Z,2.59
2023-01-30T23:21:37.960Z,2.53
2023-01-30T23:26:38.453Z,2.65
2023-01-30T23:31:36.646Z,2.69
2023-01-30T23:36:34.187Z,2.80
2023-01-30T23:41:32.540Z,2.86
2023-01-30T23:46:32.043Z,2.90
2023-01-30T23:51:30.746Z,2.90
2023-01-30T23:56:29.459Z,2.94
